Irondale, Colorado
Current Conditions -  °F | °C
As of 12:53 AM on Wednesday 26 Nov 2014 (Local Time) from KDEN Reporting Station
Light Snow Light Snow  
Wind Chill: 30°   Ceiling: 2200
Heat Index: 30°   Visibility: 9mi
Dew Point: 26°   Wind: 0mph
Humidity: 85%   Direction: NA
Pressure: 30.14"   Gusts: NA
Location:  39.8641°N, 104.821°W
Report Text: KDEN 260753Z 00000KT 9SM -SN OVC022 M01/M03 A3014 RMK AO2 SLP201 P0000 T10111033
Loading
Personal Weather Stations






























Interactive Weather Map New forecast layout! Learn more

10-Day Weather Forecast

Advertisements
Track Severe Weather on mobile